createdAt,value
2018-11-27T00:02:25.605Z,79.54
2018-11-27T00:04:55.510Z,79.55
2018-11-27T00:07:25.407Z,79.89
2018-11-27T00:09:55.154Z,79.94
2018-11-27T00:12:24.902Z,79.48
2018-11-27T00:14:54.676Z,79.57
2018-11-27T00:17:24.369Z,79.60
2018-11-27T00:19:54.176Z,80.65
2018-11-27T00:22:24.187Z,79.33
2018-11-27T00:24:53.976Z,80.15
2018-11-27T00:27:23.837Z,79.12
2018-11-27T00:29:54.049Z,79.53
2018-11-27T00:32:23.739Z,79.97
2018-11-27T00:34:53.403Z,79.61
2018-11-27T00:37:23.221Z,78.87
2018-11-27T00:39:52.992Z,79.22
2018-11-27T00:42:22.826Z,79.52
2018-11-27T00:44:52.501Z,80.05
2018-11-27T00:47:22.488Z,79.48
2018-11-27T00:49:52.356Z,79.25
2018-11-27T00:52:22.037Z,79.46
2018-11-27T00:54:51.749Z,79.60
2018-11-27T00:57:21.417Z,79.45
2018-11-27T00:59:51.122Z,79.48
2018-11-27T01:02:20.853Z,79.82
2018-11-27T01:04:50.765Z,79.90
2018-11-27T01:07:20.548Z,79.87
2018-11-27T01:09:50.377Z,80.18
2018-11-27T01:12:20.152Z,80.37
2018-11-27T01:14:49.960Z,79.93
2018-11-27T01:17:19.760Z,79.63
2018-11-27T01:19:49.637Z,79.51
2018-11-27T01:22:19.310Z,80.08
2018-11-27T01:24:49.271Z,79.93
2018-11-27T01:27:19.193Z,80.05
2018-11-27T01:29:48.936Z,79.81
2018-11-27T01:32:19.188Z,80.00
2018-11-27T01:34:49.136Z,80.54
2018-11-27T01:37:18.896Z,79.91
2018-11-27T01:39:48.833Z,80.80
2018-11-27T01:42:18.520Z,79.90
2018-11-27T01:44:48.291Z,79.61
2018-11-27T01:47:17.990Z,80.24
2018-11-27T01:49:47.721Z,79.99
2018-11-27T01:52:17.477Z,80.62
2018-11-27T01:54:47.252Z,80.61
2018-11-27T01:57:17.289Z,80.44
2018-11-27T01:59:47.166Z,80.38
2018-11-27T02:02:17.121Z,80.82
2018-11-27T02:04:47.065Z,80.28
2018-11-27T02:07:16.874Z,80.23
2018-11-27T02:09:46.620Z,80.92
2018-11-27T02:12:16.469Z,80.64
2018-11-27T02:14:46.201Z,80.79
2018-11-27T02:17:15.950Z,80.60
2018-11-27T02:19:45.749Z,80.70
2018-11-27T02:22:15.865Z,80.29
2018-11-27T02:24:45.674Z,80.32
2018-11-27T02:27:15.408Z,80.64
2018-11-27T02:29:45.257Z,80.63
2018-11-27T02:32:15.093Z,80.24
2018-11-27T02:34:45.144Z,80.54
2018-11-27T02:37:14.907Z,80.68
2018-11-27T02:39:44.720Z,80.19
2018-11-27T02:42:14.649Z,80.62
2018-11-27T02:44:44.469Z,80.43
2018-11-27T02:47:14.154Z,80.25
2018-11-27T02:49:43.907Z,80.38
2018-11-27T02:52:13.674Z,80.56
2018-11-27T02:54:43.397Z,80.58
2018-11-27T02:57:13.820Z,80.27
2018-11-27T02:59:43.582Z,80.88
2018-11-27T03:02:13.356Z,80.85
2018-11-27T03:04:43.249Z,81.23
2018-11-27T03:07:12.954Z,80.88
2018-11-27T03:09:42.974Z,81.08
2018-11-27T03:12:12.876Z,80.67
2018-11-27T03:14:42.821Z,80.25
2018-11-27T03:17:13.245Z,80.35
2018-11-27T03:19:43.054Z,80.38
2018-11-27T03:22:12.776Z,81.06
2018-11-27T03:24:42.457Z,80.64
2018-11-27T03:27:12.407Z,80.17
2018-11-27T03:29:42.186Z,80.19
2018-11-27T03:32:12.018Z,80.71
2018-11-27T03:34:41.744Z,80.69
2018-11-27T03:37:11.414Z,80.65
2018-11-27T03:39:41.353Z,80.26
2018-11-27T03:42:11.194Z,80.39
2018-11-27T03:44:40.931Z,80.04
2018-11-27T03:47:10.778Z,80.30
2018-11-27T03:49:40.618Z,80.25
2018-11-27T03:52:10.497Z,79.88
2018-11-27T03:54:40.215Z,80.40
2018-11-27T03:57:10.013Z,80.44
2018-11-27T03:59:39.988Z,79.93
2018-11-27T04:02:09.776Z,80.02
2018-11-27T04:04:39.492Z,79.37
2018-11-27T04:07:09.272Z,79.82
2018-11-27T04:09:39.010Z,79.63
2018-11-27T04:12:08.822Z,79.62
2018-11-27T04:14:38.949Z,79.61
2018-11-27T04:17:08.829Z,79.93
2018-11-27T04:19:38.636Z,79.59
2018-11-27T04:22:08.671Z,79.56
2018-11-27T04:24:38.602Z,79.71
2018-11-27T04:27:08.296Z,80.18
2018-11-27T04:29:38.033Z,79.87
2018-11-27T04:32:08.026Z,78.58
2018-11-27T04:34:37.751Z,79.55
2018-11-27T04:37:07.916Z,79.23
2018-11-27T04:39:37.737Z,79.12
2018-11-27T04:42:07.706Z,79.07
2018-11-27T04:44:37.417Z,79.65
2018-11-27T04:47:07.425Z,79.53
2018-11-27T04:49:37.198Z,80.03
2018-11-27T04:52:07.858Z,79.52
2018-11-27T04:54:37.837Z,79.28
2018-11-27T04:57:07.665Z,80.03
2018-11-27T04:59:37.393Z,79.56
2018-11-27T05:02:07.769Z,79.57
2018-11-27T05:04:37.517Z,79.29
2018-11-27T05:07:07.584Z,79.16
2018-11-27T05:09:37.990Z,79.17
2018-11-27T05:12:08.080Z,79.56
2018-11-27T05:14:37.957Z,79.35
2018-11-27T05:17:08.028Z,79.21
2018-11-27T05:19:37.968Z,79.23
2018-11-27T05:22:07.808Z,79.56
2018-11-27T05:24:37.512Z,79.76
2018-11-27T05:27:07.321Z,78.65
2018-11-27T05:29:37.182Z,79.17
2018-11-27T05:32:07.261Z,79.17
2018-11-27T05:34:37.016Z,79.46
2018-11-27T05:37:07.898Z,79.47
2018-11-27T05:39:37.902Z,79.25
2018-11-27T05:42:07.776Z,79.14
2018-11-27T05:44:37.588Z,79.21
2018-11-27T05:47:08.005Z,78.84
2018-11-27T05:49:37.833Z,79.72
2018-11-27T05:52:09.041Z,80.05
2018-11-27T05:54:37.672Z,79.84
2018-11-27T05:57:07.696Z,79.73
2018-11-27T05:59:37.436Z,79.00
2018-11-27T06:02:07.188Z,79.43
2018-11-27T06:04:36.996Z,79.91
2018-11-27T06:07:07.176Z,79.01
2018-11-27T06:09:36.977Z,79.05
2018-11-27T06:12:07.055Z,79.25
2018-11-27T06:14:36.833Z,79.37
2018-11-27T06:17:08.080Z,78.98
2018-11-27T06:19:38.414Z,79.16
2018-11-27T06:22:08.288Z,79.32
2018-11-27T06:24:38.028Z,79.45
2018-11-27T06:27:08.361Z,79.49
2018-11-27T06:29:38.047Z,80.55
2018-11-27T06:32:08.065Z,80.07
2018-11-27T06:34:37.952Z,80.40
2018-11-27T06:37:07.800Z,80.43
2018-11-27T06:39:37.606Z,79.88
2018-11-27T06:42:08.135Z,79.33
2018-11-27T06:44:37.945Z,78.87
2018-11-27T06:47:07.668Z,79.02
2018-11-27T06:49:37.474Z,79.01
2018-11-27T06:52:07.491Z,79.69
2018-11-27T06:54:37.476Z,79.29
2018-11-27T06:57:07.656Z,78.98
2018-11-27T06:59:37.443Z,79.76
2018-11-27T07:02:07.540Z,78.59
2018-11-27T07:04:37.371Z,78.04
2018-11-27T07:07:07.538Z,78.94
2018-11-27T07:09:37.413Z,79.54
2018-11-27T07:12:07.510Z,78.87
2018-11-27T07:14:37.308Z,78.47
2018-11-27T07:17:07.326Z,78.08
2018-11-27T07:19:37.085Z,78.02
2018-11-27T07:22:07.149Z,78.06
2018-11-27T07:24:38.166Z,77.52
2018-11-27T07:27:07.969Z,77.69
2018-11-27T07:29:37.744Z,78.11
2018-11-27T07:32:09.612Z,78.39
2018-11-27T07:34:37.525Z,78.14
2018-11-27T07:37:07.526Z,78.33
2018-11-27T07:39:39.247Z,77.72
2018-11-27T07:42:09.805Z,77.64
2018-11-27T07:44:39.541Z,77.32
2018-11-27T07:47:09.326Z,77.27
2018-11-27T07:49:39.147Z,77.39
2018-11-27T07:52:08.930Z,77.37
2018-11-27T07:54:38.596Z,77.30
2018-11-27T07:57:08.403Z,77.43
2018-11-27T07:59:38.292Z,77.36
2018-11-27T08:02:08.614Z,76.26
2018-11-27T08:04:38.322Z,76.35
2018-11-27T08:07:08.565Z,76.38
2018-11-27T08:09:38.452Z,76.05
2018-11-27T08:12:08.146Z,76.33
2018-11-27T08:14:37.847Z,75.84
2018-11-27T08:17:07.962Z,75.03
2018-11-27T08:19:37.688Z,75.46
2018-11-27T08:22:07.913Z,75.71
2018-11-27T08:24:37.736Z,75.63
2018-11-27T08:27:07.766Z,75.21
2018-11-27T08:29:37.502Z,75.49
2018-11-27T08:32:07.226Z,75.02
2018-11-27T08:34:36.894Z,74.74
2018-11-27T08:37:06.812Z,74.94
2018-11-27T08:39:36.474Z,74.80
2018-11-27T08:42:06.549Z,74.99
2018-11-27T08:44:36.280Z,75.39
2018-11-27T08:47:06.674Z,75.20
2018-11-27T08:49:36.353Z,74.64
2018-11-27T08:52:06.601Z,74.67
2018-11-27T08:54:36.396Z,75.09
2018-11-27T08:57:06.245Z,74.40
2018-11-27T08:59:36.046Z,75.72
2018-11-27T09:02:06.416Z,74.04
2018-11-27T09:04:36.124Z,72.11
2018-11-27T09:07:08.819Z,73.07
2018-11-27T09:09:38.754Z,72.86
2018-11-27T09:12:08.600Z,73.18
2018-11-27T09:14:38.402Z,73.00
2018-11-27T09:17:08.668Z,73.15
2018-11-27T09:19:38.507Z,72.89
2018-11-27T09:22:12.725Z,72.53
2018-11-27T09:24:38.026Z,72.52
2018-11-27T09:27:08.169Z,73.11
2018-11-27T09:29:38.033Z,73.30
2018-11-27T09:32:08.434Z,72.78
2018-11-27T09:34:38.835Z,73.19
2018-11-27T09:37:08.608Z,72.95
2018-11-27T09:39:38.373Z,71.78
2018-11-27T09:42:08.067Z,72.35
2018-11-27T09:44:37.931Z,72.19
2018-11-27T09:47:07.801Z,71.67
2018-11-27T09:49:38.122Z,72.54
2018-11-27T09:52:08.070Z,72.10
2018-11-27T09:54:37.727Z,71.14
2018-11-27T09:57:07.470Z,71.21
2018-11-27T09:59:37.087Z,71.02
2018-11-27T10:02:07.139Z,71.25
2018-11-27T10:04:36.877Z,70.73
2018-11-27T10:07:06.702Z,70.58
2018-11-27T10:09:36.436Z,69.99
2018-11-27T10:12:06.523Z,69.67
2018-11-27T10:14:36.310Z,70.33
2018-11-27T10:17:06.180Z,70.52
2018-11-27T10:19:35.963Z,71.04
2018-11-27T10:22:06.027Z,70.89
2018-11-27T10:24:35.744Z,70.54
2018-11-27T10:27:05.650Z,70.54
2018-11-27T10:29:35.557Z,70.98
2018-11-27T10:32:06.560Z,70.75
2018-11-27T10:34:36.283Z,70.96
2018-11-27T10:37:06.257Z,70.79
2018-11-27T10:39:35.896Z,70.34
2018-11-27T10:42:06.560Z,69.89
2018-11-27T10:44:36.784Z,69.06
2018-11-27T10:47:06.611Z,69.33
2018-11-27T10:49:36.420Z,69.07
2018-11-27T10:52:06.632Z,69.07
2018-11-27T10:54:36.321Z,69.04
2018-11-27T10:57:06.545Z,68.27
2018-11-27T10:59:36.420Z,67.73
2018-11-27T11:02:12.325Z,67.77
2018-11-27T11:04:42.013Z,67.65
2018-11-27T11:07:11.718Z,68.56
2018-11-27T11:09:41.461Z,67.23
2018-11-27T11:12:11.161Z,67.43
2018-11-27T11:14:40.863Z,66.90
2018-11-27T11:17:10.671Z,66.60
2018-11-27T11:19:40.359Z,67.40
2018-11-27T11:22:10.091Z,67.61
2018-11-27T11:24:39.959Z,67.72
2018-11-27T11:27:09.812Z,68.35
2018-11-27T11:29:39.669Z,68.19
2018-11-27T11:32:09.452Z,68.35
2018-11-27T11:34:39.589Z,68.85
2018-11-27T11:37:09.301Z,67.50
2018-11-27T11:39:39.168Z,67.23
2018-11-27T11:42:08.918Z,67.54
2018-11-27T11:44:38.671Z,67.59
2018-11-27T11:47:08.460Z,67.89
2018-11-27T11:49:38.253Z,67.90
2018-11-27T11:52:08.045Z,66.42
2018-11-27T11:54:37.765Z,66.62
2018-11-27T11:57:07.614Z,65.92
2018-11-27T11:59:37.378Z,66.10
2018-11-27T12:02:07.241Z,66.20
2018-11-27T12:04:37.032Z,65.96
2018-11-27T12:07:07.092Z,65.67
2018-11-27T12:09:36.814Z,65.77
2018-11-27T12:12:06.756Z,65.96
2018-11-27T12:14:36.699Z,64.36
2018-11-27T12:17:06.513Z,64.28
2018-11-27T12:19:36.315Z,65.21
2018-11-27T12:22:06.458Z,64.43
2018-11-27T12:24:36.232Z,64.50
2018-11-27T12:27:06.407Z,64.86
2018-11-27T12:29:36.144Z,63.03
2018-11-27T12:32:06.192Z,64.13
2018-11-27T12:34:35.969Z,64.54
2018-11-27T12:37:05.955Z,64.22
2018-11-27T12:39:35.838Z,64.52
2018-11-27T12:42:05.671Z,64.88
2018-11-27T12:44:35.343Z,65.30
2018-11-27T12:47:10.073Z,65.62
2018-11-27T12:49:39.894Z,65.15
2018-11-27T12:52:09.622Z,65.32
2018-11-27T12:54:39.305Z,66.34
2018-11-27T12:57:09.594Z,65.86
2018-11-27T12:59:40.003Z,66.39
2018-11-27T13:02:10.224Z,65.47
2018-11-27T13:04:40.504Z,66.86
2018-11-27T13:07:10.222Z,66.38
2018-11-27T13:09:40.022Z,65.24
2018-11-27T13:12:09.878Z,65.97
2018-11-27T13:14:39.750Z,65.37
2018-11-27T13:17:09.963Z,65.92
2018-11-27T13:19:40.365Z,65.98
2018-11-27T13:22:10.097Z,65.83
2018-11-27T13:24:40.099Z,65.62
2018-11-27T13:27:09.958Z,65.87
2018-11-27T13:29:39.958Z,65.45
2018-11-27T13:32:10.435Z,65.62
2018-11-27T13:34:40.200Z,66.26
2018-11-27T13:37:10.033Z,66.67
2018-11-27T13:39:39.993Z,66.78
2018-11-27T13:42:10.088Z,66.63
2018-11-27T13:44:39.890Z,66.50
2018-11-27T13:47:09.617Z,65.98
2018-11-27T13:49:39.388Z,64.57
2018-11-27T13:52:09.297Z,63.76
2018-11-27T13:54:39.011Z,64.22
2018-11-27T13:57:09.006Z,64.08
2018-11-27T13:59:38.790Z,64.26
2018-11-27T14:02:08.597Z,64.33
2018-11-27T14:04:38.449Z,64.69
2018-11-27T14:07:08.320Z,64.59
2018-11-27T14:09:38.264Z,64.02
2018-11-27T14:12:08.150Z,63.98
2018-11-27T14:14:38.037Z,63.95
2018-11-27T14:17:08.347Z,63.26
2018-11-27T14:19:38.880Z,63.71
2018-11-27T14:22:08.875Z,64.19
2018-11-27T14:24:38.765Z,64.50
2018-11-27T14:27:08.543Z,63.98
2018-11-27T14:29:38.435Z,63.48
2018-11-27T14:32:08.374Z,64.21
2018-11-27T14:34:38.320Z,64.36
2018-11-27T14:37:08.222Z,64.21
2018-11-27T14:39:38.151Z,64.14
2018-11-27T14:42:08.273Z,64.19
2018-11-27T14:44:38.243Z,64.34
2018-11-27T14:47:08.370Z,65.05
2018-11-27T14:49:38.116Z,64.57
2018-11-27T14:52:08.317Z,64.87
2018-11-27T14:54:38.447Z,64.97
2018-11-27T14:57:08.354Z,64.63
2018-11-27T14:59:38.081Z,64.86
2018-11-27T15:02:08.285Z,65.18
2018-11-27T15:04:38.509Z,65.13
2018-11-27T15:07:08.230Z,65.83
2018-11-27T15:09:38.069Z,65.51
2018-11-27T15:12:08.138Z,65.39
2018-11-27T15:14:37.968Z,65.20
2018-11-27T15:17:08.014Z,65.62
2018-11-27T15:19:37.881Z,65.98
2018-11-27T15:22:08.794Z,65.39
2018-11-27T15:24:38.618Z,65.58
2018-11-27T15:27:29.132Z,65.88
2018-11-27T15:29:59.721Z,65.95
2018-11-27T15:32:29.562Z,65.80
2018-11-27T15:35:08.615Z,65.98
2018-11-27T15:37:39.004Z,66.16
2018-11-27T15:40:17.954Z,66.59
2018-11-27T15:42:47.910Z,66.57
2018-11-27T15:45:23.208Z,66.75
2018-11-27T15:47:53.268Z,66.63
2018-11-27T15:50:23.006Z,66.27
2018-11-27T15:52:53.376Z,66.86
2018-11-27T15:55:30.857Z,66.59
2018-11-27T15:58:10.695Z,66.70
2018-11-27T16:00:41.476Z,66.69
2018-11-27T16:03:11.388Z,66.19
2018-11-27T16:05:44.377Z,66.35
2018-11-27T16:08:14.745Z,66.22
2018-11-27T16:10:52.138Z,67.08
2018-11-27T16:13:22.069Z,66.48
2018-11-27T16:15:51.796Z,66.79
2018-11-27T16:18:21.682Z,67.73
2018-11-27T16:20:51.530Z,66.02
2018-11-27T16:23:21.475Z,66.25
2018-11-27T16:25:51.406Z,67.79
2018-11-27T16:28:21.184Z,68.16
2018-11-27T16:30:50.996Z,68.01
2018-11-27T16:33:20.729Z,68.46
2018-11-27T16:35:50.562Z,68.58
2018-11-27T16:38:20.582Z,68.40
2018-11-27T16:40:50.332Z,68.44
2018-11-27T16:43:20.149Z,68.70
2018-11-27T16:45:49.874Z,69.43
2018-11-27T16:48:19.657Z,69.36
2018-11-27T16:50:49.630Z,69.46
2018-11-27T16:53:19.352Z,69.48
2018-11-27T16:55:49.245Z,69.47
2018-11-27T16:58:18.966Z,69.69
2018-11-27T17:00:48.705Z,69.93
2018-11-27T17:03:18.653Z,70.30
2018-11-27T17:05:48.450Z,70.79
2018-11-27T17:08:18.214Z,70.71
2018-11-27T17:34:47.419Z,71.71
2018-11-27T17:37:17.281Z,72.14
2018-11-27T17:40:49.236Z,72.23
2018-11-27T17:43:19.139Z,71.89
2018-11-27T17:45:49.101Z,72.30
2018-11-27T17:48:18.854Z,72.06
2018-11-27T17:50:48.760Z,72.29
2018-11-27T17:53:18.661Z,72.49
2018-11-27T17:55:48.543Z,72.73
2018-11-27T17:58:22.822Z,72.29
2018-11-27T18:00:48.415Z,72.63
2018-11-27T18:03:18.244Z,72.60
2018-11-27T18:05:48.015Z,72.56
2018-11-27T18:08:17.994Z,72.72
2018-11-27T18:10:47.809Z,72.90
2018-11-27T18:13:17.828Z,72.74
2018-11-27T18:15:47.621Z,72.58
2018-11-27T18:18:17.538Z,72.27
2018-11-27T18:20:47.684Z,72.25
2018-11-27T18:23:17.510Z,71.88
2018-11-27T18:25:47.474Z,72.27
2018-11-27T18:28:17.234Z,72.94
2018-11-27T18:30:47.062Z,73.08
2018-11-27T18:33:16.931Z,73.14
2018-11-27T18:35:46.753Z,72.97
2018-11-27T18:38:16.545Z,73.27
2018-11-27T18:40:46.365Z,72.93
2018-11-27T18:43:16.296Z,73.04
2018-11-27T18:45:46.087Z,72.49
2018-11-27T18:48:15.899Z,72.70
2018-11-27T18:50:45.818Z,72.10
2018-11-27T18:53:15.600Z,72.18
2018-11-27T18:55:45.634Z,71.83
2018-11-27T18:58:15.511Z,72.31
2018-11-27T19:00:45.579Z,71.86
2018-11-27T19:03:15.489Z,71.76
2018-11-27T19:05:45.458Z,71.71
2018-11-27T19:08:15.332Z,71.86
2018-11-27T19:10:45.307Z,72.07
2018-11-27T19:13:15.130Z,72.12
2018-11-27T19:15:47.861Z,72.13
2018-11-27T19:18:23.733Z,72.46
2018-11-27T19:20:53.964Z,72.34
2018-11-27T19:23:25.917Z,72.46
2018-11-27T19:25:55.718Z,72.15
2018-11-27T19:28:25.621Z,71.87
2018-11-27T19:30:55.438Z,72.05
2018-11-27T19:33:25.520Z,71.90
2018-11-27T19:35:55.370Z,72.17
2018-11-27T19:38:25.330Z,72.73
2018-11-27T19:40:55.172Z,72.46
2018-11-27T19:43:25.120Z,72.66
2018-11-27T19:45:55.089Z,73.03
2018-11-27T19:48:24.903Z,73.09
2018-11-27T19:50:55.250Z,73.05
2018-11-27T19:53:25.244Z,72.63
2018-11-27T19:55:55.082Z,72.76
2018-11-27T19:58:24.931Z,73.21
2018-11-27T20:00:54.686Z,73.68
2018-11-27T20:03:24.487Z,73.83
2018-11-27T20:05:54.373Z,73.15
2018-11-27T20:08:24.354Z,73.85
2018-11-27T20:10:57.010Z,74.04
2018-11-27T20:13:26.799Z,73.90
2018-11-27T20:15:56.654Z,74.05
2018-11-27T20:18:26.753Z,74.34
2018-11-27T20:20:56.686Z,74.48
2018-11-27T20:23:26.609Z,74.75
2018-11-27T20:25:56.482Z,74.51
2018-11-27T20:28:26.308Z,74.49
2018-11-27T20:30:56.216Z,74.05
2018-11-27T20:33:27.125Z,74.67
2018-11-27T20:35:57.061Z,74.82
2018-11-27T20:38:26.969Z,74.79
2018-11-27T20:40:56.899Z,74.81
2018-11-27T20:43:26.721Z,74.68
2018-11-27T20:45:56.680Z,75.10
2018-11-27T20:48:26.535Z,75.55
2018-11-27T20:50:56.462Z,75.21
2018-11-27T20:53:26.461Z,74.96
2018-11-27T20:55:57.067Z,75.39
2018-11-27T20:58:27.100Z,75.19
2018-11-27T21:00:57.031Z,75.65
2018-11-27T21:03:26.938Z,75.67
2018-11-27T21:05:56.942Z,76.22
2018-11-27T21:08:26.848Z,76.20
2018-11-27T21:10:56.721Z,76.26
2018-11-27T21:13:26.570Z,75.63
2018-11-27T21:15:56.375Z,75.75
2018-11-27T21:18:26.236Z,75.73
2018-11-27T21:20:56.155Z,75.15
2018-11-27T21:23:25.928Z,75.19
2018-11-27T21:25:59.919Z,75.13
2018-11-27T21:28:29.692Z,75.41
2018-11-27T21:30:59.686Z,74.41
2018-11-27T21:33:29.595Z,74.57
2018-11-27T21:35:59.408Z,75.04
2018-11-27T21:38:29.218Z,74.75
2018-11-27T21:40:59.097Z,74.65
2018-11-27T21:43:28.929Z,74.79
2018-11-27T21:45:58.829Z,74.67
2018-11-27T21:48:28.679Z,74.25
2018-11-27T21:51:01.725Z,74.42
2018-11-27T21:53:31.822Z,74.27
2018-11-27T21:56:01.639Z,74.13
2018-11-27T21:58:31.793Z,74.17
2018-11-27T22:01:01.601Z,74.15
2018-11-27T22:03:31.528Z,74.15
2018-11-27T22:06:01.435Z,73.89
2018-11-27T22:08:31.462Z,73.60
2018-11-27T22:11:01.338Z,73.47
2018-11-27T22:13:31.092Z,73.60
2018-11-27T22:16:01.044Z,74.15
2018-11-27T22:18:30.914Z,73.16
2018-11-27T22:21:00.744Z,73.25
2018-11-27T22:23:30.534Z,72.97
2018-11-27T22:26:00.397Z,72.72
2018-11-27T22:28:30.196Z,72.94
2018-11-27T22:31:00.132Z,72.65
2018-11-27T22:33:29.874Z,72.48
2018-11-27T22:35:59.710Z,72.68
2018-11-27T22:38:29.494Z,72.47
2018-11-27T22:40:59.202Z,72.01
2018-11-27T22:43:28.939Z,72.00
2018-11-27T22:45:58.846Z,71.86
2018-11-27T22:48:28.606Z,72.27
2018-11-27T22:50:58.355Z,72.00
2018-11-27T22:53:28.321Z,72.18
2018-11-27T22:55:58.018Z,71.65
2018-11-27T22:58:27.999Z,71.58
2018-11-27T23:00:58.019Z,71.55
2018-11-27T23:03:27.854Z,71.34
2018-11-27T23:05:57.605Z,71.25
2018-11-27T23:08:27.476Z,71.14
2018-11-27T23:10:57.333Z,71.25
2018-11-27T23:13:27.183Z,71.15
2018-11-27T23:15:57.107Z,71.21
2018-11-27T23:18:26.819Z,71.43
2018-11-27T23:20:56.580Z,71.51
2018-11-27T23:23:26.498Z,71.52
2018-11-27T23:25:56.332Z,71.90
2018-11-27T23:28:26.176Z,71.43
2018-11-27T23:30:56.038Z,71.20
2018-11-27T23:33:25.808Z,71.16
2018-11-27T23:35:55.556Z,71.52
2018-11-27T23:38:25.337Z,71.63
2018-11-27T23:40:55.411Z,71.75
2018-11-27T23:43:25.166Z,71.46
2018-11-27T23:45:54.937Z,71.63
2018-11-27T23:48:24.899Z,71.55
2018-11-27T23:50:54.647Z,72.05
2018-11-27T23:53:24.506Z,71.17
2018-11-27T23:55:54.260Z,71.66
2018-11-27T23:58:24.075Z,71.90
